createdAt,value
2022-08-24T00:02:26.198Z,20.00
2022-08-24T00:05:02.239Z,20.00
2022-08-24T00:07:35.268Z,20.00
2022-08-24T00:10:05.553Z,20.00
2022-08-24T00:12:37.647Z,20.00
2022-08-24T00:15:11.754Z,20.00
2022-08-24T00:17:41.345Z,20.00
2022-08-24T00:20:45.101Z,20.00
2022-08-24T00:23:17.469Z,20.00
2022-08-24T00:25:48.862Z,20.00
2022-08-24T00:28:24.352Z,20.00
2022-08-24T00:30:56.127Z,20.10
2022-08-24T00:33:28.558Z,20.00
2022-08-24T00:36:02.268Z,20.00
2022-08-24T00:38:35.881Z,19.90
2022-08-24T00:46:33.533Z,19.80
2022-08-24T00:49:33.701Z,19.70
2022-08-24T00:52:08.543Z,19.80
2022-08-24T00:54:46.053Z,19.80
2022-08-24T00:57:17.865Z,19.80
2022-08-24T00:59:50.772Z,19.60
2022-08-24T01:02:31.350Z,19.60
2022-08-24T01:05:09.653Z,19.70
2022-08-24T01:07:41.859Z,19.80
2022-08-24T01:10:14.251Z,19.90
2022-08-24T01:13:00.502Z,19.90
2022-08-24T01:15:37.882Z,19.80
2022-08-24T01:18:27.846Z,19.70
2022-08-24T01:21:05.083Z,19.60
2022-08-24T01:23:41.142Z,19.50
2022-08-24T01:26:18.441Z,19.50
2022-08-24T01:28:51.625Z,19.60
2022-08-24T01:31:22.395Z,19.60
2022-08-24T01:33:53.434Z,19.60
2022-08-24T01:36:47.580Z,19.60
2022-08-24T01:39:39.457Z,19.40
2022-08-24T01:42:16.556Z,19.30
2022-08-24T01:44:47.169Z,19.30
2022-08-24T01:47:17.243Z,19.30
2022-08-24T01:49:49.890Z,19.30
2022-08-24T01:52:25.554Z,19.30
2022-08-24T01:55:02.081Z,19.30
2022-08-24T01:57:31.534Z,19.30
2022-08-24T02:00:02.620Z,19.40
2022-08-24T02:03:45.554Z,19.40
2022-08-24T02:06:18.494Z,19.30
2022-08-24T02:08:47.250Z,19.30
2022-08-24T02:11:24.098Z,19.30
2022-08-24T02:13:52.946Z,19.20
2022-08-24T02:16:21.328Z,19.20
2022-08-24T02:18:49.494Z,19.10
2022-08-24T02:21:20.735Z,19.20
2022-08-24T02:23:49.193Z,19.20
2022-08-24T02:26:21.858Z,19.20
2022-08-24T02:28:50.392Z,19.10
2022-08-24T02:31:18.919Z,19.10
2022-08-24T02:33:47.937Z,19.00
2022-08-24T02:36:25.598Z,18.90
2022-08-24T02:38:58.513Z,18.90
2022-08-24T02:41:27.716Z,18.90
2022-08-24T02:43:57.116Z,18.90
2022-08-24T02:46:30.567Z,19.00
2022-08-24T02:49:10.411Z,19.00
2022-08-24T02:51:49.525Z,18.90
2022-08-24T02:54:21.447Z,18.80
2022-08-24T02:56:57.907Z,18.80
2022-08-24T03:00:00.058Z,18.70
2022-08-24T03:02:29.384Z,18.70
2022-08-24T03:04:57.675Z,18.60
2022-08-24T03:07:26.072Z,18.50
2022-08-24T03:09:58.398Z,18.40
2022-08-24T03:12:28.365Z,18.30
2022-08-24T03:15:00.614Z,18.30
2022-08-24T03:17:33.807Z,18.30
2022-08-24T03:20:05.106Z,18.30
2022-08-24T03:22:34.086Z,18.30
2022-08-24T03:25:11.685Z,18.10
2022-08-24T03:27:41.154Z,18.10
2022-08-24T03:30:13.508Z,18.10
2022-08-24T03:32:44.122Z,18.10
2022-08-24T03:35:14.614Z,18.00
2022-08-24T03:37:43.493Z,18.00
2022-08-24T03:40:23.039Z,17.90
2022-08-24T03:42:55.931Z,17.90
2022-08-24T03:45:33.145Z,17.90
2022-08-24T03:48:03.522Z,17.90
2022-08-24T03:55:07.700Z,17.90
2022-08-24T03:57:36.864Z,17.80
2022-08-24T04:00:13.390Z,17.80
2022-08-24T04:03:01.853Z,17.70
2022-08-24T04:05:34.897Z,17.70
2022-08-24T04:08:12.139Z,17.50
2022-08-24T04:10:55.045Z,17.40
2022-08-24T04:13:25.260Z,17.40
2022-08-24T04:15:57.730Z,17.40
2022-08-24T04:18:36.936Z,17.40
2022-08-24T04:21:06.433Z,17.40
2022-08-24T04:23:46.897Z,17.50
2022-08-24T04:26:36.412Z,17.50
2022-08-24T04:30:44.002Z,17.40
2022-08-24T04:33:15.106Z,17.30
2022-08-24T04:35:48.574Z,17.20
2022-08-24T04:38:19.331Z,17.20
2022-08-24T04:41:09.883Z,17.10
2022-08-24T04:43:48.165Z,17.20
2022-08-24T04:46:20.731Z,17.30
2022-08-24T04:48:49.730Z,17.30
2022-08-24T04:51:36.700Z,17.30
2022-08-24T04:54:08.692Z,17.30
2022-08-24T04:56:43.520Z,17.30
2022-08-24T04:59:12.451Z,17.30
2022-08-24T05:01:49.516Z,17.50
2022-08-24T05:09:41.151Z,17.60
2022-08-24T05:12:12.195Z,17.70
2022-08-24T05:14:55.781Z,17.70
2022-08-24T05:17:27.155Z,17.90
2022-08-24T05:19:58.853Z,17.90
2022-08-24T05:23:03.884Z,17.90
2022-08-24T05:25:35.208Z,18.20
2022-08-24T05:28:04.134Z,18.50
2022-08-24T05:30:42.723Z,18.80
2022-08-24T05:33:11.869Z,19.50
2022-08-24T05:35:47.931Z,20.00
2022-08-24T05:43:30.270Z,20.60
2022-08-24T05:46:00.356Z,21.10
2022-08-24T05:48:29.815Z,21.30
2022-08-24T05:51:27.007Z,21.50
2022-08-24T05:54:04.422Z,22.00
2022-08-24T05:56:44.895Z,22.40
2022-08-24T05:59:14.833Z,22.70
2022-08-24T06:01:45.646Z,23.10
2022-08-24T06:04:23.945Z,23.30
2022-08-24T06:07:00.038Z,23.70
2022-08-24T06:09:31.584Z,24.00
2022-08-24T06:12:01.393Z,24.30
2022-08-24T06:14:31.488Z,24.70
2022-08-24T06:17:09.030Z,25.10
2022-08-24T06:20:14.814Z,25.30
2022-08-24T06:22:44.717Z,26.00
2022-08-24T06:25:32.253Z,26.50
2022-08-24T06:28:01.072Z,26.90
2022-08-24T06:30:35.208Z,27.30
2022-08-24T06:33:15.901Z,27.60
2022-08-24T06:35:53.769Z,27.70
2022-08-24T06:38:31.313Z,27.80
2022-08-24T06:41:00.366Z,27.80
2022-08-24T06:43:36.342Z,27.70
2022-08-24T06:46:13.154Z,27.50
2022-08-24T06:48:45.103Z,27.70
2022-08-24T06:51:17.779Z,27.90
2022-08-24T06:53:47.627Z,27.60
2022-08-24T06:56:19.357Z,27.60
2022-08-24T06:58:48.294Z,27.60
2022-08-24T07:01:22.211Z,27.70
2022-08-24T07:03:52.245Z,27.50
2022-08-24T07:06:52.916Z,27.60
2022-08-24T07:09:25.120Z,27.50
2022-08-24T07:11:57.652Z,27.60
2022-08-24T07:14:32.285Z,27.50
2022-08-24T07:17:34.820Z,27.70
2022-08-24T07:20:03.243Z,27.30
2022-08-24T07:23:08.760Z,26.70
2022-08-24T07:25:49.585Z,26.30
2022-08-24T07:28:27.759Z,26.30
2022-08-24T07:31:01.574Z,27.30
2022-08-24T07:33:37.598Z,27.40
2022-08-24T07:36:06.858Z,27.70
2022-08-24T07:38:36.476Z,27.30
2022-08-24T07:41:33.748Z,27.20
2022-08-24T07:43:53.588Z,27.30
2022-08-24T07:46:22.988Z,28.00
2022-08-24T07:49:00.140Z,27.20
2022-08-24T07:51:44.971Z,26.50
2022-08-24T07:54:32.426Z,26.10
2022-08-24T07:57:06.932Z,25.90
2022-08-24T07:59:42.734Z,26.00
2022-08-24T08:02:12.309Z,26.00
2022-08-24T08:04:44.502Z,26.10
2022-08-24T08:07:15.086Z,26.70
2022-08-24T08:09:43.964Z,26.80
2022-08-24T08:12:13.475Z,27.60
2022-08-24T08:14:59.624Z,27.30
2022-08-24T08:17:29.271Z,27.10
2022-08-24T08:19:57.942Z,26.80
2022-08-24T08:22:47.160Z,27.10
2022-08-24T08:25:39.009Z,27.00
2022-08-24T08:28:25.030Z,27.30
2022-08-24T08:30:56.820Z,27.50
2022-08-24T08:33:36.455Z,28.20
2022-08-24T08:36:12.654Z,28.30
2022-08-24T08:38:46.483Z,27.40
2022-08-24T08:41:22.082Z,28.10
2022-08-24T08:44:39.916Z,28.00
2022-08-24T08:47:27.307Z,27.90
2022-08-24T08:50:24.141Z,28.30
2022-08-24T08:53:14.679Z,28.00
2022-08-24T08:56:03.761Z,28.40
2022-08-24T08:58:59.501Z,28.40
2022-08-24T09:02:16.661Z,28.90
2022-08-24T09:04:59.126Z,29.00
2022-08-24T09:07:45.519Z,28.70
2022-08-24T09:10:21.965Z,29.40
2022-08-24T09:13:14.328Z,29.00
2022-08-24T09:16:07.182Z,29.80
2022-08-24T09:19:13.641Z,29.80
2022-08-24T09:21:56.329Z,29.90
2022-08-24T09:24:36.264Z,29.70
2022-08-24T09:27:36.248Z,30.80
2022-08-24T09:30:22.011Z,30.70
2022-08-24T09:32:50.665Z,29.80
2022-08-24T09:35:31.812Z,29.90
2022-08-24T09:38:38.995Z,30.60
2022-08-24T09:41:12.460Z,30.50
2022-08-24T09:44:19.249Z,31.70
2022-08-24T09:46:59.653Z,31.20
2022-08-24T09:49:50.721Z,31.00
2022-08-24T09:52:27.528Z,31.20
2022-08-24T09:55:14.626Z,30.30
2022-08-24T09:58:01.696Z,30.70
2022-08-24T10:01:10.431Z,32.20
2022-08-24T10:04:14.956Z,31.70
2022-08-24T10:07:18.000Z,30.80
2022-08-24T10:10:08.698Z,32.20
2022-08-24T10:13:00.489Z,32.70
2022-08-24T10:15:58.710Z,33.10
2022-08-24T10:18:35.235Z,31.50
2022-08-24T10:21:32.930Z,30.80
2022-08-24T10:24:26.623Z,31.80
2022-08-24T10:27:02.210Z,31.40
2022-08-24T10:29:58.140Z,31.50
2022-08-24T10:32:32.069Z,31.40
2022-08-24T10:35:10.175Z,32.40
2022-08-24T10:37:51.856Z,32.90
2022-08-24T10:40:55.239Z,33.50
2022-08-24T10:43:38.897Z,31.00
2022-08-24T10:46:38.059Z,32.40
2022-08-24T10:49:37.005Z,33.20
2022-08-24T10:52:16.267Z,32.10
2022-08-24T10:54:45.764Z,32.40
2022-08-24T10:57:40.801Z,32.50
2022-08-24T11:00:22.600Z,33.60
2022-08-24T11:03:27.940Z,33.50
2022-08-24T11:06:25.691Z,31.50
2022-08-24T11:09:17.216Z,31.80
2022-08-24T11:11:50.061Z,32.00
2022-08-24T11:14:29.824Z,33.40
2022-08-24T11:17:19.425Z,33.90
2022-08-24T11:19:49.054Z,33.80
2022-08-24T11:22:57.175Z,32.30
2022-08-24T11:25:32.330Z,32.90
2022-08-24T11:28:06.263Z,33.40
2022-08-24T11:30:38.977Z,33.40
2022-08-24T11:33:33.903Z,31.70
2022-08-24T11:36:02.778Z,32.90
2022-08-24T11:38:35.077Z,34.20
2022-08-24T11:41:22.357Z,34.00
2022-08-24T11:44:30.261Z,32.70
2022-08-24T11:47:30.180Z,32.60
2022-08-24T11:50:23.005Z,32.10
2022-08-24T11:56:26.799Z,34.30
2022-08-24T11:59:06.997Z,35.00
2022-08-24T12:01:57.095Z,35.50
2022-08-24T12:04:40.528Z,36.00
2022-08-24T12:07:31.651Z,35.60
2022-08-24T12:10:37.700Z,36.20
2022-08-24T12:13:20.998Z,36.20
2022-08-24T12:16:09.824Z,36.70
2022-08-24T12:19:11.805Z,35.30
2022-08-24T12:21:45.383Z,36.10
2022-08-24T12:24:39.254Z,36.10
2022-08-24T12:27:32.301Z,36.20
2022-08-24T12:30:08.623Z,36.20
2022-08-24T12:32:46.799Z,36.20
2022-08-24T12:35:28.463Z,35.70
2022-08-24T12:38:22.144Z,35.80
2022-08-24T12:41:11.137Z,35.90
2022-08-24T12:44:01.725Z,35.60
2022-08-24T12:46:30.428Z,34.00
2022-08-24T12:49:19.997Z,33.60
2022-08-24T12:52:36.741Z,33.80
2022-08-24T12:55:31.796Z,34.20
2022-08-24T12:58:32.200Z,35.00
2022-08-24T13:01:08.617Z,35.30
2022-08-24T13:03:39.593Z,35.00
2022-08-24T13:06:31.987Z,35.50
2022-08-24T13:09:26.089Z,35.80
2022-08-24T13:11:56.892Z,35.90
2022-08-24T13:14:29.799Z,33.70
2022-08-24T13:17:05.557Z,33.90
2022-08-24T13:19:38.722Z,33.60
2022-08-24T13:22:10.024Z,32.40
2022-08-24T13:24:42.814Z,32.20
2022-08-24T13:27:16.129Z,33.70
2022-08-24T13:30:06.474Z,34.40
2022-08-24T13:32:44.326Z,34.40
2022-08-24T13:35:37.445Z,33.30
2022-08-24T13:38:24.358Z,33.80
2022-08-24T13:41:05.949Z,33.50
2022-08-24T13:43:46.217Z,32.90
2022-08-24T13:46:48.788Z,32.90
2022-08-24T13:49:49.292Z,33.80
2022-08-24T13:52:37.817Z,33.80
2022-08-24T13:55:33.997Z,33.80
2022-08-24T13:58:23.740Z,34.30
2022-08-24T14:01:34.670Z,34.70
2022-08-24T14:04:26.769Z,34.10
2022-08-24T14:07:07.286Z,34.00
2022-08-24T14:09:39.500Z,33.60
2022-08-24T14:12:13.304Z,34.30
2022-08-24T14:14:41.245Z,33.90
2022-08-24T14:17:55.494Z,33.20
2022-08-24T14:21:11.810Z,33.90
2022-08-24T14:23:59.992Z,33.10
2022-08-24T14:26:43.605Z,33.80
2022-08-24T14:29:19.728Z,34.10
2022-08-24T14:32:12.214Z,33.60
2022-08-24T14:35:12.423Z,33.60
2022-08-24T14:37:58.985Z,33.50
2022-08-24T14:40:37.730Z,33.60
2022-08-24T14:43:11.658Z,32.70
2022-08-24T14:46:17.124Z,32.50
2022-08-24T14:48:51.045Z,32.90
2022-08-24T14:51:55.645Z,32.70
2022-08-24T14:54:33.011Z,33.00
2022-08-24T14:57:06.894Z,32.70
2022-08-24T15:00:04.052Z,32.30
2022-08-24T15:02:55.026Z,31.70
2022-08-24T15:05:44.473Z,32.30
2022-08-24T15:08:42.801Z,32.70
2022-08-24T15:11:18.461Z,33.00
2022-08-24T15:13:49.257Z,33.00
2022-08-24T15:16:54.172Z,32.50
2022-08-24T15:19:32.416Z,32.10
2022-08-24T15:22:21.369Z,32.10
2022-08-24T15:25:03.606Z,31.80
2022-08-24T15:27:43.301Z,31.50
2022-08-24T15:30:33.725Z,31.60
2022-08-24T15:33:05.625Z,32.20
2022-08-24T15:35:49.212Z,31.70
2022-08-24T15:38:35.998Z,31.60
2022-08-24T15:41:12.714Z,32.00
2022-08-24T15:43:56.589Z,32.30
2022-08-24T15:46:34.385Z,32.00
2022-08-24T15:49:16.605Z,31.60
2022-08-24T15:51:55.356Z,31.30
2022-08-24T15:54:24.870Z,31.10
2022-08-24T15:56:57.741Z,30.80
2022-08-24T15:59:39.397Z,30.70
2022-08-24T16:02:26.562Z,31.20
2022-08-24T16:05:16.971Z,31.60
2022-08-24T16:08:07.374Z,31.50
2022-08-24T16:10:50.255Z,30.90
2022-08-24T16:13:18.565Z,31.00
2022-08-24T16:16:05.248Z,31.10
2022-08-24T16:18:55.678Z,30.90
2022-08-24T16:22:02.230Z,31.00
2022-08-24T16:24:35.136Z,30.60
2022-08-24T16:27:14.258Z,30.30
2022-08-24T16:29:55.725Z,29.90
2022-08-24T16:32:51.690Z,30.00
2022-08-24T16:35:25.267Z,30.30
2022-08-24T16:37:55.832Z,29.80
2022-08-24T16:40:24.872Z,29.80
2022-08-24T16:42:56.635Z,30.00
2022-08-24T16:45:24.651Z,29.70
2022-08-24T16:47:52.547Z,29.70
2022-08-24T16:50:21.998Z,29.50
2022-08-24T16:52:55.246Z,29.20
2022-08-24T16:55:23.508Z,29.40
2022-08-24T16:57:51.589Z,29.30
2022-08-24T17:00:22.366Z,29.30
2022-08-24T17:02:50.777Z,29.00
2022-08-24T17:05:50.783Z,28.80
2022-08-24T17:08:27.265Z,28.80
2022-08-24T17:10:56.586Z,28.80
2022-08-24T17:13:48.513Z,28.80
2022-08-24T17:16:14.767Z,28.70
2022-08-24T17:18:43.162Z,28.50
2022-08-24T17:21:19.432Z,28.50
2022-08-24T17:23:49.126Z,28.40
2022-08-24T17:26:20.279Z,28.30
2022-08-24T17:28:55.014Z,27.90
2022-08-24T17:31:26.504Z,27.90
2022-08-24T17:33:54.849Z,27.90
2022-08-24T17:36:24.048Z,27.80
2022-08-24T17:38:56.018Z,27.80
2022-08-24T17:41:26.162Z,27.80
2022-08-24T17:43:55.183Z,27.60
2022-08-24T17:46:24.098Z,27.70
2022-08-24T17:48:57.856Z,27.60
2022-08-24T17:51:26.228Z,27.50
2022-08-24T17:53:54.152Z,27.60
2022-08-24T17:56:22.742Z,27.40
2022-08-24T17:59:08.840Z,27.40
2022-08-24T18:01:36.940Z,27.40
2022-08-24T18:04:05.249Z,27.40
2022-08-24T18:06:34.595Z,27.20
2022-08-24T18:09:07.198Z,27.10
2022-08-24T18:11:35.395Z,26.90
2022-08-24T18:14:03.729Z,26.80
2022-08-24T18:16:32.987Z,26.80
2022-08-24T18:19:01.207Z,26.70
2022-08-24T18:21:30.006Z,26.60
2022-08-24T18:23:58.974Z,26.50
2022-08-24T18:26:28.928Z,26.50
2022-08-24T18:33:17.896Z,26.30
2022-08-24T18:35:51.135Z,26.20
2022-08-24T18:38:26.793Z,26.00
2022-08-24T18:40:58.075Z,26.00
2022-08-24T18:43:34.062Z,25.90
2022-08-24T18:46:03.819Z,25.80
2022-08-24T18:48:33.804Z,25.60
2022-08-24T18:51:03.855Z,25.30
2022-08-24T18:53:34.615Z,25.30
2022-08-24T18:56:10.465Z,25.30
2022-08-24T18:58:41.785Z,25.20
2022-08-24T19:01:11.932Z,25.10
2022-08-24T19:03:44.298Z,24.90
2022-08-24T19:06:12.199Z,24.80
2022-08-24T19:08:40.658Z,24.70
2022-08-24T19:11:10.647Z,24.60
2022-08-24T19:13:43.098Z,24.50
2022-08-24T19:16:11.850Z,24.40
2022-08-24T19:18:49.643Z,24.30
2022-08-24T19:21:18.582Z,24.20
2022-08-24T19:23:48.835Z,24.30
2022-08-24T19:26:19.387Z,24.20
2022-08-24T19:28:49.133Z,24.20
2022-08-24T19:31:21.329Z,24.20
2022-08-24T19:33:50.076Z,24.10
2022-08-24T19:36:19.179Z,24.10
2022-08-24T19:38:47.704Z,24.00
2022-08-24T19:41:21.475Z,23.90
2022-08-24T19:44:23.425Z,23.80
2022-08-24T19:46:57.311Z,23.60
2022-08-24T19:49:26.588Z,23.50
2022-08-24T19:51:57.061Z,23.40
2022-08-24T19:54:25.798Z,23.40
2022-08-24T19:56:54.579Z,23.30
2022-08-24T19:59:31.274Z,23.20
2022-08-24T20:02:05.182Z,22.80
2022-08-24T20:04:33.935Z,22.90
2022-08-24T20:07:03.795Z,22.60
2022-08-24T20:10:12.698Z,22.50
2022-08-24T20:12:42.443Z,22.50
2022-08-24T20:15:17.863Z,22.50
2022-08-24T20:17:57.528Z,22.40
2022-08-24T20:20:28.207Z,22.40
2022-08-24T20:22:57.139Z,22.40
2022-08-24T20:25:25.707Z,22.40
2022-08-24T20:28:12.467Z,22.00
2022-08-24T20:30:55.006Z,22.10
2022-08-24T20:33:27.804Z,22.00
2022-08-24T20:35:57.496Z,21.90
2022-08-24T20:38:31.728Z,21.80
2022-08-24T20:41:02.236Z,21.70
2022-08-24T20:43:31.858Z,21.70
2022-08-24T20:46:04.405Z,21.60
2022-08-24T20:48:43.214Z,21.70
2022-08-24T20:51:14.551Z,21.50
2022-08-24T20:53:45.842Z,21.60
2022-08-24T20:56:46.387Z,21.50
2022-08-24T20:59:16.431Z,21.60
2022-08-24T21:01:47.469Z,21.30
2022-08-24T21:04:15.975Z,21.30
2022-08-24T21:06:46.448Z,21.20
2022-08-24T21:09:19.450Z,21.20
2022-08-24T21:11:52.333Z,21.20
2022-08-24T21:14:22.189Z,21.20
2022-08-24T21:16:51.606Z,21.10
2022-08-24T21:19:20.120Z,21.00
2022-08-24T21:22:21.950Z,21.00
2022-08-24T21:24:50.850Z,21.00
2022-08-24T21:27:24.193Z,20.90
2022-08-24T21:29:53.111Z,20.70
2022-08-24T21:32:47.709Z,20.50
2022-08-24T21:35:20.099Z,20.40
2022-08-24T21:37:49.681Z,20.40
2022-08-24T21:40:18.918Z,20.30
2022-08-24T21:42:48.457Z,20.40
2022-08-24T21:45:26.156Z,20.30
2022-08-24T21:48:01.218Z,20.40
2022-08-24T21:50:29.744Z,20.40
2022-08-24T21:52:59.504Z,20.20
2022-08-24T21:55:28.457Z,20.10
2022-08-24T21:57:56.981Z,20.10
2022-08-24T22:00:35.871Z,20.00
2022-08-24T22:03:11.690Z,20.00
2022-08-24T22:05:48.161Z,20.00
2022-08-24T22:08:16.630Z,19.90
2022-08-24T22:11:19.378Z,19.70
2022-08-24T22:13:56.350Z,19.70
2022-08-24T22:16:30.681Z,19.60
2022-08-24T22:19:04.569Z,19.50
2022-08-24T22:21:35.789Z,19.50
2022-08-24T22:24:14.144Z,19.50
2022-08-24T22:26:43.290Z,19.40
2022-08-24T22:29:18.350Z,19.40
2022-08-24T22:31:47.758Z,19.40
2022-08-24T22:34:21.951Z,19.30
2022-08-24T22:36:50.699Z,19.30
2022-08-24T22:39:26.375Z,19.20
2022-08-24T22:41:58.887Z,19.30
2022-08-24T22:44:31.060Z,19.20
2022-08-24T22:47:33.631Z,19.20
2022-08-24T22:50:02.216Z,19.20
2022-08-24T22:52:30.659Z,19.10
2022-08-24T22:55:03.171Z,19.10
2022-08-24T22:57:31.752Z,19.20
2022-08-24T23:00:02.513Z,19.20
2022-08-24T23:02:31.640Z,19.30
2022-08-24T23:04:59.706Z,19.30
2022-08-24T23:07:28.710Z,19.20
2022-08-24T23:09:58.865Z,19.20
2022-08-24T23:12:29.017Z,19.20
2022-08-24T23:14:58.771Z,19.10
2022-08-24T23:17:36.906Z,19.20
2022-08-24T23:20:10.184Z,19.20
2022-08-24T23:22:43.821Z,19.30
2022-08-24T23:25:14.241Z,19.40
2022-08-24T23:27:51.400Z,19.40
2022-08-24T23:30:26.287Z,19.40
2022-08-24T23:32:56.173Z,19.40
2022-08-24T23:35:24.499Z,19.40
2022-08-24T23:37:53.480Z,19.40
2022-08-24T23:40:22.251Z,19.30
2022-08-24T23:42:52.181Z,19.30
2022-08-24T23:45:28.380Z,19.30
2022-08-24T23:48:00.156Z,19.50
2022-08-24T23:50:32.199Z,19.40
2022-08-24T23:53:03.711Z,19.10
2022-08-24T23:55:32.765Z,19.30
2022-08-24T23:58:32.933Z,19.20
